sensor_id;sensor_type;location;lat;lon;timestamp;temperature;humidity
49777;DHT22;35673;51.482;7.436;2022-08-24T00:00:57;23.50;84.60
49777;DHT22;35673;51.482;7.436;2022-08-24T00:03:22;23.50;84.00
49777;DHT22;35673;51.482;7.436;2022-08-24T00:05:49;23.50;82.30
49777;DHT22;35673;51.482;7.436;2022-08-24T00:08:15;23.50;82.30
49777;DHT22;35673;51.482;7.436;2022-08-24T00:10:41;23.50;83.00
49777;DHT22;35673;51.482;7.436;2022-08-24T00:13:07;23.40;81.60
49777;DHT22;35673;51.482;7.436;2022-08-24T00:15:33;23.40;80.70
49777;DHT22;35673;51.482;7.436;2022-08-24T00:17:59;23.40;79.90
49777;DHT22;35673;51.482;7.436;2022-08-24T00:20:24;23.40;81.40
49777;DHT22;35673;51.482;7.436;2022-08-24T00:22:51;23.30;82.60
49777;DHT22;35673;51.482;7.436;2022-08-24T00:25:16;23.20;84.90
49777;DHT22;35673;51.482;7.436;2022-08-24T00:27:44;23.20;86.50
49777;DHT22;35673;51.482;7.436;2022-08-24T00:30:13;22.90;90.20
49777;DHT22;35673;51.482;7.436;2022-08-24T00:32:43;22.60;92.50
49777;DHT22;35673;51.482;7.436;2022-08-24T00:35:10;22.40;93.30
49777;DHT22;35673;51.482;7.436;2022-08-24T00:37:37;22.50;93.10
49777;DHT22;35673;51.482;7.436;2022-08-24T00:40:10;22.50;92.70
49777;DHT22;35673;51.482;7.436;2022-08-24T00:42:37;22.60;92.30
49777;DHT22;35673;51.482;7.436;2022-08-24T00:45:04;22.60;91.70
49777;DHT22;35673;51.482;7.436;2022-08-24T00:47:38;22.60;91.40
49777;DHT22;35673;51.482;7.436;2022-08-24T00:50:09;22.70;91.60
49777;DHT22;35673;51.482;7.436;2022-08-24T00:53:07;22.60;91.80
49777;DHT22;35673;51.482;7.436;2022-08-24T00:55:38;22.70;91.80
49777;DHT22;35673;51.482;7.436;2022-08-24T00:58:14;22.60;92.50
49777;DHT22;35673;51.482;7.436;2022-08-24T01:00:44;22.60;92.80
49777;DHT22;35673;51.482;7.436;2022-08-24T01:03:11;22.50;92.90
49777;DHT22;35673;51.482;7.436;2022-08-24T01:05:39;22.50;93.10
49777;DHT22;35673;51.482;7.436;2022-08-24T01:08:08;22.40;93.50
49777;DHT22;35673;51.482;7.436;2022-08-24T01:10:38;22.40;93.80
49777;DHT22;35673;51.482;7.436;2022-08-24T01:13:06;22.40;94.10
49777;DHT22;35673;51.482;7.436;2022-08-24T01:15:36;22.40;93.80
49777;DHT22;35673;51.482;7.436;2022-08-24T01:18:03;22.50;93.40
49777;DHT22;35673;51.482;7.436;2022-08-24T01:20:54;22.40;93.30
49777;DHT22;35673;51.482;7.436;2022-08-24T01:23:34;22.40;93.40
49777;DHT22;35673;51.482;7.436;2022-08-24T01:26:01;22.40;93.70
49777;DHT22;35673;51.482;7.436;2022-08-24T01:28:28;22.40;93.90
49777;DHT22;35673;51.482;7.436;2022-08-24T01:30:54;22.40;93.70
49777;DHT22;35673;51.482;7.436;2022-08-24T01:33:24;22.40;93.90
49777;DHT22;35673;51.482;7.436;2022-08-24T01:35:56;22.30;93.70
49777;DHT22;35673;51.482;7.436;2022-08-24T01:38:23;22.30;93.70
49777;DHT22;35673;51.482;7.436;2022-08-24T01:40:54;22.20;94.50
49777;DHT22;35673;51.482;7.436;2022-08-24T01:43:22;22.20;94.70
49777;DHT22;35673;51.482;7.436;2022-08-24T01:45:48;22.20;95.60
49777;DHT22;35673;51.482;7.436;2022-08-24T01:48:14;22.10;96.00
49777;DHT22;35673;51.482;7.436;2022-08-24T01:50:40;22.10;96.20
49777;DHT22;35673;51.482;7.436;2022-08-24T01:53:07;22.10;96.00
49777;DHT22;35673;51.482;7.436;2022-08-24T01:55:33;22.10;95.70
49777;DHT22;35673;51.482;7.436;2022-08-24T01:57:59;22.10;95.90
49777;DHT22;35673;51.482;7.436;2022-08-24T02:00:25;22.10;95.60
49777;DHT22;35673;51.482;7.436;2022-08-24T02:02:51;22.10;95.90
49777;DHT22;35673;51.482;7.436;2022-08-24T02:05:16;22.00;96.40
49777;DHT22;35673;51.482;7.436;2022-08-24T02:07:42;22.00;96.40
49777;DHT22;35673;51.482;7.436;2022-08-24T02:10:12;22.00;96.70
49777;DHT22;35673;51.482;7.436;2022-08-24T02:12:39;21.90;96.80
49777;DHT22;35673;51.482;7.436;2022-08-24T02:15:06;21.90;96.00
49777;DHT22;35673;51.482;7.436;2022-08-24T02:17:34;21.80;97.30
49777;DHT22;35673;51.482;7.436;2022-08-24T02:20:00;21.80;97.70
49777;DHT22;35673;51.482;7.436;2022-08-24T02:22:26;21.80;97.80
49777;DHT22;35673;51.482;7.436;2022-08-24T02:24:51;21.90;97.90
49777;DHT22;35673;51.482;7.436;2022-08-24T02:27:17;21.80;98.20
49777;DHT22;35673;51.482;7.436;2022-08-24T02:29:43;21.70;98.30
49777;DHT22;35673;51.482;7.436;2022-08-24T02:32:09;21.70;98.50
49777;DHT22;35673;51.482;7.436;2022-08-24T02:34:37;21.70;98.80
49777;DHT22;35673;51.482;7.436;2022-08-24T02:37:03;21.70;99.10
49777;DHT22;35673;51.482;7.436;2022-08-24T02:39:28;21.70;99.20
49777;DHT22;35673;51.482;7.436;2022-08-24T02:41:54;21.60;99.00
49777;DHT22;35673;51.482;7.436;2022-08-24T02:44:20;21.60;99.40
49777;DHT22;35673;51.482;7.436;2022-08-24T02:46:45;21.60;99.40
49777;DHT22;35673;51.482;7.436;2022-08-24T02:49:11;21.60;99.20
49777;DHT22;35673;51.482;7.436;2022-08-24T02:51:38;21.60;98.70
49777;DHT22;35673;51.482;7.436;2022-08-24T02:54:05;21.50;98.80
49777;DHT22;35673;51.482;7.436;2022-08-24T02:56:32;21.60;99.00
49777;DHT22;35673;51.482;7.436;2022-08-24T02:58:59;21.60;98.80
49777;DHT22;35673;51.482;7.436;2022-08-24T03:01:26;21.60;98.80
49777;DHT22;35673;51.482;7.436;2022-08-24T03:03:52;21.60;98.70
49777;DHT22;35673;51.482;7.436;2022-08-24T03:06:17;21.60;98.60
49777;DHT22;35673;51.482;7.436;2022-08-24T03:08:43;21.50;98.60
49777;DHT22;35673;51.482;7.436;2022-08-24T03:11:10;21.60;98.70
49777;DHT22;35673;51.482;7.436;2022-08-24T03:13:37;21.50;99.00
49777;DHT22;35673;51.482;7.436;2022-08-24T03:16:03;21.50;99.20
49777;DHT22;35673;51.482;7.436;2022-08-24T03:18:30;21.50;99.30
49777;DHT22;35673;51.482;7.436;2022-08-24T03:20:57;21.50;99.10
49777;DHT22;35673;51.482;7.436;2022-08-24T03:23:24;21.50;99.40
49777;DHT22;35673;51.482;7.436;2022-08-24T03:25:50;21.50;99.80
49777;DHT22;35673;51.482;7.436;2022-08-24T03:28:17;21.40;99.90
49777;DHT22;35673;51.482;7.436;2022-08-24T03:30:43;21.40;99.90
49777;DHT22;35673;51.482;7.436;2022-08-24T03:33:10;21.30;99.90
49777;DHT22;35673;51.482;7.436;2022-08-24T03:35:36;21.30;99.90
49777;DHT22;35673;51.482;7.436;2022-08-24T03:38:01;21.30;99.90
49777;DHT22;35673;51.482;7.436;2022-08-24T03:40:27;21.20;99.90
49777;DHT22;35673;51.482;7.436;2022-08-24T03:42:53;21.10;99.90
49777;DHT22;35673;51.482;7.436;2022-08-24T03:45:20;21.10;99.90
49777;DHT22;35673;51.482;7.436;2022-08-24T03:47:46;21.10;99.90
49777;DHT22;35673;51.482;7.436;2022-08-24T03:50:12;21.00;99.90
49777;DHT22;35673;51.482;7.436;2022-08-24T03:52:38;21.00;99.90
49777;DHT22;35673;51.482;7.436;2022-08-24T03:55:05;21.00;99.90
49777;DHT22;35673;51.482;7.436;2022-08-24T03:57:31;21.00;99.90
49777;DHT22;35673;51.482;7.436;2022-08-24T03:59:56;21.00;99.90
49777;DHT22;35673;51.482;7.436;2022-08-24T04:02:22;21.00;99.90
49777;DHT22;35673;51.482;7.436;2022-08-24T04:04:48;21.00;99.90
49777;DHT22;35673;51.482;7.436;2022-08-24T04:07:14;21.00;99.90
49777;DHT22;35673;51.482;7.436;2022-08-24T04:09:40;21.00;99.90
49777;DHT22;35673;51.482;7.436;2022-08-24T04:12:05;21.00;99.90
49777;DHT22;35673;51.482;7.436;2022-08-24T04:14:31;20.90;99.90
49777;DHT22;35673;51.482;7.436;2022-08-24T04:16:57;20.90;99.90
49777;DHT22;35673;51.482;7.436;2022-08-24T04:19:23;20.90;99.90
49777;DHT22;35673;51.482;7.436;2022-08-24T04:21:48;20.70;99.90
49777;DHT22;35673;51.482;7.436;2022-08-24T04:24:14;20.70;99.90
49777;DHT22;35673;51.482;7.436;2022-08-24T04:26:40;20.80;99.90
49777;DHT22;35673;51.482;7.436;2022-08-24T04:29:08;20.80;99.90
49777;DHT22;35673;51.482;7.436;2022-08-24T04:31:38;20.70;99.90
49777;DHT22;35673;51.482;7.436;2022-08-24T04:34:05;20.70;99.90
49777;DHT22;35673;51.482;7.436;2022-08-24T04:36:32;20.80;99.90
49777;DHT22;35673;51.482;7.436;2022-08-24T04:38:59;20.80;99.90
49777;DHT22;35673;51.482;7.436;2022-08-24T04:41:25;20.80;99.90
49777;DHT22;35673;51.482;7.436;2022-08-24T04:43:51;20.80;99.90
49777;DHT22;35673;51.482;7.436;2022-08-24T04:46:18;20.70;99.90
49777;DHT22;35673;51.482;7.436;2022-08-24T04:48:45;20.70;99.90
49777;DHT22;35673;51.482;7.436;2022-08-24T04:51:13;20.80;99.90
49777;DHT22;35673;51.482;7.436;2022-08-24T04:53:41;20.70;99.90
49777;DHT22;35673;51.482;7.436;2022-08-24T04:56:19;20.70;99.90
49777;DHT22;35673;51.482;7.436;2022-08-24T04:58:45;20.70;99.90
49777;DHT22;35673;51.482;7.436;2022-08-24T05:01:18;20.70;99.90
49777;DHT22;35673;51.482;7.436;2022-08-24T05:03:45;20.70;99.90
49777;DHT22;35673;51.482;7.436;2022-08-24T05:06:12;20.80;99.90
49777;DHT22;35673;51.482;7.436;2022-08-24T05:08:40;20.80;99.90
49777;DHT22;35673;51.482;7.436;2022-08-24T05:11:06;20.70;99.90
49777;DHT22;35673;51.482;7.436;2022-08-24T05:13:36;20.80;99.90
49777;DHT22;35673;51.482;7.436;2022-08-24T05:16:08;20.80;99.90
49777;DHT22;35673;51.482;7.436;2022-08-24T05:18:35;20.90;99.90
49777;DHT22;35673;51.482;7.436;2022-08-24T05:21:00;20.90;99.90
49777;DHT22;35673;51.482;7.436;2022-08-24T05:23:26;20.90;99.90
49777;DHT22;35673;51.482;7.436;2022-08-24T05:26:05;20.90;99.90
49777;DHT22;35673;51.482;7.436;2022-08-24T05:28:32;20.90;99.90
49777;DHT22;35673;51.482;7.436;2022-08-24T05:33:36;21.00;99.90
49777;DHT22;35673;51.482;7.436;2022-08-24T05:36:03;21.00;99.90
49777;DHT22;35673;51.482;7.436;2022-08-24T05:38:29;21.00;99.90
49777;DHT22;35673;51.482;7.436;2022-08-24T05:40:55;21.10;99.90
49777;DHT22;35673;51.482;7.436;2022-08-24T05:43:21;21.10;99.90
49777;DHT22;35673;51.482;7.436;2022-08-24T05:45:47;21.10;99.90
49777;DHT22;35673;51.482;7.436;2022-08-24T05:48:12;21.10;99.90
49777;DHT22;35673;51.482;7.436;2022-08-24T05:50:38;21.20;99.90
49777;DHT22;35673;51.482;7.436;2022-08-24T05:53:03;21.20;99.90
49777;DHT22;35673;51.482;7.436;2022-08-24T05:55:29;21.30;99.90
49777;DHT22;35673;51.482;7.436;2022-08-24T05:57:55;21.40;99.90
49777;DHT22;35673;51.482;7.436;2022-08-24T06:00:21;21.40;99.90
49777;DHT22;35673;51.482;7.436;2022-08-24T06:02:48;21.50;99.00
49777;DHT22;35673;51.482;7.436;2022-08-24T06:05:17;21.70;98.80
49777;DHT22;35673;51.482;7.436;2022-08-24T06:07:42;21.80;97.90
49777;DHT22;35673;51.482;7.436;2022-08-24T06:12:35;22.00;95.20
49777;DHT22;35673;51.482;7.436;2022-08-24T06:15:01;22.00;94.80
49777;DHT22;35673;51.482;7.436;2022-08-24T06:17:26;22.10;94.30
49777;DHT22;35673;51.482;7.436;2022-08-24T06:19:52;22.20;93.80
49777;DHT22;35673;51.482;7.436;2022-08-24T06:22:17;22.30;93.60
49777;DHT22;35673;51.482;7.436;2022-08-24T06:24:43;22.40;91.40
49777;DHT22;35673;51.482;7.436;2022-08-24T06:27:28;22.50;88.50
49777;DHT22;35673;51.482;7.436;2022-08-24T06:30:03;22.50;88.90
49777;DHT22;35673;51.482;7.436;2022-08-24T06:32:29;22.60;87.80
49777;DHT22;35673;51.482;7.436;2022-08-24T06:34:56;22.60;84.10
49777;DHT22;35673;51.482;7.436;2022-08-24T06:37:22;22.70;85.60
49777;DHT22;35673;51.482;7.436;2022-08-24T06:39:53;22.70;83.90
49777;DHT22;35673;51.482;7.436;2022-08-24T06:42:18;22.80;83.40
49777;DHT22;35673;51.482;7.436;2022-08-24T06:44:44;22.80;81.60
49777;DHT22;35673;51.482;7.436;2022-08-24T06:47:10;22.90;80.00
49777;DHT22;35673;51.482;7.436;2022-08-24T06:49:36;23.00;78.00
49777;DHT22;35673;51.482;7.436;2022-08-24T06:52:04;23.20;77.70
49777;DHT22;35673;51.482;7.436;2022-08-24T06:54:30;23.30;76.50
49777;DHT22;35673;51.482;7.436;2022-08-24T06:56:55;23.40;72.80
49777;DHT22;35673;51.482;7.436;2022-08-24T06:59:25;23.50;70.80
49777;DHT22;35673;51.482;7.436;2022-08-24T07:01:52;23.60;70.60
49777;DHT22;35673;51.482;7.436;2022-08-24T07:04:18;23.80;70.30
49777;DHT22;35673;51.482;7.436;2022-08-24T07:06:44;23.90;70.00
49777;DHT22;35673;51.482;7.436;2022-08-24T07:09:10;23.90;69.40
49777;DHT22;35673;51.482;7.436;2022-08-24T07:11:36;24.00;70.10
49777;DHT22;35673;51.482;7.436;2022-08-24T07:14:02;24.10;69.80
49777;DHT22;35673;51.482;7.436;2022-08-24T07:16:28;24.30;69.20
49777;DHT22;35673;51.482;7.436;2022-08-24T07:18:54;24.40;69.10
49777;DHT22;35673;51.482;7.436;2022-08-24T07:21:20;24.50;68.40
49777;DHT22;35673;51.482;7.436;2022-08-24T07:23:46;24.60;67.50
49777;DHT22;35673;51.482;7.436;2022-08-24T07:26:15;24.80;67.30
49777;DHT22;35673;51.482;7.436;2022-08-24T07:28:43;24.90;67.00
49777;DHT22;35673;51.482;7.436;2022-08-24T07:31:09;25.10;66.80
49777;DHT22;35673;51.482;7.436;2022-08-24T07:33:36;25.20;66.70
49777;DHT22;35673;51.482;7.436;2022-08-24T07:36:03;25.40;65.50
49777;DHT22;35673;51.482;7.436;2022-08-24T07:38:28;25.40;65.10
49777;DHT22;35673;51.482;7.436;2022-08-24T07:40:54;25.50;64.90
49777;DHT22;35673;51.482;7.436;2022-08-24T07:43:20;25.60;64.00
49777;DHT22;35673;51.482;7.436;2022-08-24T07:45:46;25.70;63.30
49777;DHT22;35673;51.482;7.436;2022-08-24T07:48:12;25.80;64.00
49777;DHT22;35673;51.482;7.436;2022-08-24T07:50:38;25.90;62.50
49777;DHT22;35673;51.482;7.436;2022-08-24T07:53:04;26.10;62.20
49777;DHT22;35673;51.482;7.436;2022-08-24T07:55:29;26.30;62.00
49777;DHT22;35673;51.482;7.436;2022-08-24T07:57:55;26.40;61.60
49777;DHT22;35673;51.482;7.436;2022-08-24T08:00:20;26.50;60.90
49777;DHT22;35673;51.482;7.436;2022-08-24T08:02:47;26.70;60.80
49777;DHT22;35673;51.482;7.436;2022-08-24T08:05:14;26.70;59.80
49777;DHT22;35673;51.482;7.436;2022-08-24T08:07:40;26.80;59.50
49777;DHT22;35673;51.482;7.436;2022-08-24T08:10:07;26.80;58.80
49777;DHT22;35673;51.482;7.436;2022-08-24T08:12:33;27.00;58.00
49777;DHT22;35673;51.482;7.436;2022-08-24T08:14:59;27.20;57.70
49777;DHT22;35673;51.482;7.436;2022-08-24T08:17:25;27.30;57.20
49777;DHT22;35673;51.482;7.436;2022-08-24T08:19:51;27.30;57.30
49777;DHT22;35673;51.482;7.436;2022-08-24T08:22:17;27.50;56.90
49777;DHT22;35673;51.482;7.436;2022-08-24T08:25:02;27.60;56.60
49777;DHT22;35673;51.482;7.436;2022-08-24T08:27:28;27.80;56.40
49777;DHT22;35673;51.482;7.436;2022-08-24T08:29:53;28.00;56.90
49777;DHT22;35673;51.482;7.436;2022-08-24T08:32:19;28.10;56.10
49777;DHT22;35673;51.482;7.436;2022-08-24T08:34:46;28.20;55.60
49777;DHT22;35673;51.482;7.436;2022-08-24T08:37:12;28.40;55.60
49777;DHT22;35673;51.482;7.436;2022-08-24T08:39:39;28.60;55.80
49777;DHT22;35673;51.482;7.436;2022-08-24T08:50:38;29.20;54.00
49777;DHT22;35673;51.482;7.436;2022-08-24T09:07:19;30.00;52.70
49777;DHT22;35673;51.482;7.436;2022-08-24T09:35:16;31.90;50.40
49777;DHT22;35673;51.482;7.436;2022-08-24T09:43:28;32.20;49.70
49777;DHT22;35673;51.482;7.436;2022-08-24T09:51:41;32.00;49.50
49777;DHT22;35673;51.482;7.436;2022-08-24T09:57:33;31.50;49.80
49777;DHT22;35673;51.482;7.436;2022-08-24T10:02:58;31.10;50.20
49777;DHT22;35673;51.482;7.436;2022-08-24T10:16:35;30.40;51.30
49777;DHT22;35673;51.482;7.436;2022-08-24T10:22:09;30.20;51.40
49777;DHT22;35673;51.482;7.436;2022-08-24T10:27:20;30.20;51.80
49777;DHT22;35673;51.482;7.436;2022-08-24T10:32:51;30.20;51.60
49777;DHT22;35673;51.482;7.436;2022-08-24T10:35:31;30.20;51.60
49777;DHT22;35673;51.482;7.436;2022-08-24T10:38:28;30.20;51.20
49777;DHT22;35673;51.482;7.436;2022-08-24T10:41:51;30.30;51.20
49777;DHT22;35673;51.482;7.436;2022-08-24T10:44:54;30.20;51.20
49777;DHT22;35673;51.482;7.436;2022-08-24T10:47:27;30.20;51.30
49777;DHT22;35673;51.482;7.436;2022-08-24T10:53:28;30.20;51.60
49777;DHT22;35673;51.482;7.436;2022-08-24T10:56:15;30.20;51.00
49777;DHT22;35673;51.482;7.436;2022-08-24T11:01:14;30.30;50.50
49777;DHT22;35673;51.482;7.436;2022-08-24T11:03:59;30.40;50.40
49777;DHT22;35673;51.482;7.436;2022-08-24T11:06:29;30.30;50.50
49777;DHT22;35673;51.482;7.436;2022-08-24T11:11:39;30.50;50.90
49777;DHT22;35673;51.482;7.436;2022-08-24T11:14:09;30.40;51.10
49777;DHT22;35673;51.482;7.436;2022-08-24T11:16:47;30.50;51.10
49777;DHT22;35673;51.482;7.436;2022-08-24T11:19:28;30.50;50.80
49777;DHT22;35673;51.482;7.436;2022-08-24T11:21:59;30.60;50.50
49777;DHT22;35673;51.482;7.436;2022-08-24T11:24:30;30.60;50.60
49777;DHT22;35673;51.482;7.436;2022-08-24T11:32:42;30.90;50.20
49777;DHT22;35673;51.482;7.436;2022-08-24T11:35:17;30.90;50.00
49777;DHT22;35673;51.482;7.436;2022-08-24T11:37:43;30.90;50.10
49777;DHT22;35673;51.482;7.436;2022-08-24T11:40:10;31.00;50.20
49777;DHT22;35673;51.482;7.436;2022-08-24T11:45:35;31.00;49.70
49777;DHT22;35673;51.482;7.436;2022-08-24T11:48:20;30.90;49.40
49777;DHT22;35673;51.482;7.436;2022-08-24T11:56:37;30.90;49.50
49777;DHT22;35673;51.482;7.436;2022-08-24T11:59:23;31.00;49.30
49777;DHT22;35673;51.482;7.436;2022-08-24T12:01:58;31.10;48.90
49777;DHT22;35673;51.482;7.436;2022-08-24T12:04:48;31.20;48.80
49777;DHT22;35673;51.482;7.436;2022-08-24T12:07:25;31.30;48.60
49777;DHT22;35673;51.482;7.436;2022-08-24T12:10:05;31.30;48.10
49777;DHT22;35673;51.482;7.436;2022-08-24T12:18:00;31.40;49.30
49777;DHT22;35673;51.482;7.436;2022-08-24T12:20:42;31.40;49.10
49777;DHT22;35673;51.482;7.436;2022-08-24T12:23:37;31.50;49.00
49777;DHT22;35673;51.482;7.436;2022-08-24T12:26:32;31.60;48.70
49777;DHT22;35673;51.482;7.436;2022-08-24T12:29:09;31.80;48.10
49777;DHT22;35673;51.482;7.436;2022-08-24T12:31:41;32.00;47.70
49777;DHT22;35673;51.482;7.436;2022-08-24T12:40:25;32.30;47.50
49777;DHT22;35673;51.482;7.436;2022-08-24T12:45:21;33.30;46.80
49777;DHT22;35673;51.482;7.436;2022-08-24T12:48:09;33.20;46.20
49777;DHT22;35673;51.482;7.436;2022-08-24T13:01:26;32.70;46.40
49777;DHT22;35673;51.482;7.436;2022-08-24T13:04:07;32.70;46.00
49777;DHT22;35673;51.482;7.436;2022-08-24T13:06:41;32.60;46.20
49777;DHT22;35673;51.482;7.436;2022-08-24T13:09:30;32.60;46.70
49777;DHT22;35673;51.482;7.436;2022-08-24T13:11:59;32.70;45.90
49777;DHT22;35673;51.482;7.436;2022-08-24T13:14:28;33.00;46.10
49777;DHT22;35673;51.482;7.436;2022-08-24T13:22:00;33.60;45.20
49777;DHT22;35673;51.482;7.436;2022-08-24T13:24:46;33.90;45.00
49777;DHT22;35673;51.482;7.436;2022-08-24T13:29:51;35.20;43.60
49777;DHT22;35673;51.482;7.436;2022-08-24T13:32:31;37.80;42.00
49777;DHT22;35673;51.482;7.436;2022-08-24T13:35:34;40.40;40.10
49777;DHT22;35673;51.482;7.436;2022-08-24T13:40:50;43.30;37.20
49777;DHT22;35673;51.482;7.436;2022-08-24T13:43:31;44.20;37.00
49777;DHT22;35673;51.482;7.436;2022-08-24T13:46:19;45.00;36.10
49777;DHT22;35673;51.482;7.436;2022-08-24T13:48:57;45.80;35.30
49777;DHT22;35673;51.482;7.436;2022-08-24T13:54:25;47.20;33.70
49777;DHT22;35673;51.482;7.436;2022-08-24T14:02:49;48.10;33.70
49777;DHT22;35673;51.482;7.436;2022-08-24T14:17:15;48.30;32.30
49777;DHT22;35673;51.482;7.436;2022-08-24T14:35:03;50.50;31.60
49777;DHT22;35673;51.482;7.436;2022-08-24T14:43:30;50.20;31.20
49777;DHT22;35673;51.482;7.436;2022-08-24T14:46:22;50.00;31.20
49777;DHT22;35673;51.482;7.436;2022-08-24T14:49:15;49.70;31.40
49777;DHT22;35673;51.482;7.436;2022-08-24T14:52:16;50.10;31.30
49777;DHT22;35673;51.482;7.436;2022-08-24T15:00:14;50.40;31.30
49777;DHT22;35673;51.482;7.436;2022-08-24T15:10:38;51.20;31.20
49777;DHT22;35673;51.482;7.436;2022-08-24T15:13:11;51.00;30.40
49777;DHT22;35673;51.482;7.436;2022-08-24T15:15:44;51.00;30.40
49777;DHT22;35673;51.482;7.436;2022-08-24T15:18:21;51.40;30.30
49777;DHT22;35673;51.482;7.436;2022-08-24T15:21:17;51.40;30.30
49777;DHT22;35673;51.482;7.436;2022-08-24T15:29:19;50.90;30.10
49777;DHT22;35673;51.482;7.436;2022-08-24T15:32:14;50.70;30.20
49777;DHT22;35673;51.482;7.436;2022-08-24T15:35:21;51.50;30.00
49777;DHT22;35673;51.482;7.436;2022-08-24T15:37:47;52.20;29.80
49777;DHT22;35673;51.482;7.436;2022-08-24T15:40:31;51.40;29.80
49777;DHT22;35673;51.482;7.436;2022-08-24T15:43:00;48.30;30.00
49777;DHT22;35673;51.482;7.436;2022-08-24T15:45:28;46.10;30.80
49777;DHT22;35673;51.482;7.436;2022-08-24T15:47:54;44.70;31.40
49777;DHT22;35673;51.482;7.436;2022-08-24T15:50:28;43.70;31.90
49777;DHT22;35673;51.482;7.436;2022-08-24T15:53:02;42.80;32.40
49777;DHT22;35673;51.482;7.436;2022-08-24T15:55:41;41.90;33.20
49777;DHT22;35673;51.482;7.436;2022-08-24T15:58:29;41.10;33.90
49777;DHT22;35673;51.482;7.436;2022-08-24T16:03:54;40.20;35.00
49777;DHT22;35673;51.482;7.436;2022-08-24T16:09:04;40.60;34.90
49777;DHT22;35673;51.482;7.436;2022-08-24T16:11:37;40.90;34.60
49777;DHT22;35673;51.482;7.436;2022-08-24T16:14:10;41.80;34.30
49777;DHT22;35673;51.482;7.436;2022-08-24T16:16:39;41.90;34.20
49777;DHT22;35673;51.482;7.436;2022-08-24T16:19:10;41.40;34.10
49777;DHT22;35673;51.482;7.436;2022-08-24T16:32:22;43.20;34.90
49777;DHT22;35673;51.482;7.436;2022-08-24T16:34:50;44.70;34.10
49777;DHT22;35673;51.482;7.436;2022-08-24T16:37:17;45.30;33.50
49777;DHT22;35673;51.482;7.436;2022-08-24T16:39:45;45.80;33.10
49777;DHT22;35673;51.482;7.436;2022-08-24T16:42:18;45.90;32.90
49777;DHT22;35673;51.482;7.436;2022-08-24T16:44:44;43.90;33.10
49777;DHT22;35673;51.482;7.436;2022-08-24T16:47:10;42.20;33.90
49777;DHT22;35673;51.482;7.436;2022-08-24T16:49:36;41.30;34.70
49777;DHT22;35673;51.482;7.436;2022-08-24T16:52:03;40.20;35.30
49777;DHT22;35673;51.482;7.436;2022-08-24T16:54:30;39.90;36.00
49777;DHT22;35673;51.482;7.436;2022-08-24T16:57:02;41.10;35.70
49777;DHT22;35673;51.482;7.436;2022-08-24T16:59:31;40.80;35.40
49777;DHT22;35673;51.482;7.436;2022-08-24T17:01:58;41.20;35.60
49777;DHT22;35673;51.482;7.436;2022-08-24T17:04:24;41.90;35.10
49777;DHT22;35673;51.482;7.436;2022-08-24T17:06:50;41.60;34.70
49777;DHT22;35673;51.482;7.436;2022-08-24T17:09:17;40.10;35.40
49777;DHT22;35673;51.482;7.436;2022-08-24T17:11:43;39.00;36.30
49777;DHT22;35673;51.482;7.436;2022-08-24T17:14:09;37.90;37.20
49777;DHT22;35673;51.482;7.436;2022-08-24T17:16:35;37.10;37.90
49777;DHT22;35673;51.482;7.436;2022-08-24T17:19:03;36.50;38.40
49777;DHT22;35673;51.482;7.436;2022-08-24T17:21:30;36.20;39.00
49777;DHT22;35673;51.482;7.436;2022-08-24T17:23:56;35.90;39.40
49777;DHT22;35673;51.482;7.436;2022-08-24T17:26:22;35.60;39.70
49777;DHT22;35673;51.482;7.436;2022-08-24T17:28:50;35.30;40.10
49777;DHT22;35673;51.482;7.436;2022-08-24T17:31:16;34.90;40.20
49777;DHT22;35673;51.482;7.436;2022-08-24T17:33:42;34.80;40.40
49777;DHT22;35673;51.482;7.436;2022-08-24T17:36:08;34.50;40.60
49777;DHT22;35673;51.482;7.436;2022-08-24T17:38:45;34.30;40.90
49777;DHT22;35673;51.482;7.436;2022-08-24T17:41:13;34.10;41.20
49777;DHT22;35673;51.482;7.436;2022-08-24T17:43:38;33.90;41.40
49777;DHT22;35673;51.482;7.436;2022-08-24T17:46:05;33.70;41.60
49777;DHT22;35673;51.482;7.436;2022-08-24T17:48:31;33.60;41.90
49777;DHT22;35673;51.482;7.436;2022-08-24T17:50:57;33.50;41.90
49777;DHT22;35673;51.482;7.436;2022-08-24T17:53:23;33.40;42.10
49777;DHT22;35673;51.482;7.436;2022-08-24T17:55:48;33.30;43.00
49777;DHT22;35673;51.482;7.436;2022-08-24T17:58:14;33.10;42.40
49777;DHT22;35673;51.482;7.436;2022-08-24T18:00:41;33.00;42.50
49777;DHT22;35673;51.482;7.436;2022-08-24T18:03:06;33.00;42.80
49777;DHT22;35673;51.482;7.436;2022-08-24T18:05:32;32.90;42.90
49777;DHT22;35673;51.482;7.436;2022-08-24T18:08:00;32.80;43.00
49777;DHT22;35673;51.482;7.436;2022-08-24T18:10:28;32.80;43.40
49777;DHT22;35673;51.482;7.436;2022-08-24T18:12:57;32.60;43.50
49777;DHT22;35673;51.482;7.436;2022-08-24T18:15:24;32.60;43.80
49777;DHT22;35673;51.482;7.436;2022-08-24T18:17:52;32.50;43.90
49777;DHT22;35673;51.482;7.436;2022-08-24T18:20:27;32.30;44.70
49777;DHT22;35673;51.482;7.436;2022-08-24T18:25:34;32.10;44.40
49777;DHT22;35673;51.482;7.436;2022-08-24T18:28:02;32.00;44.60
49777;DHT22;35673;51.482;7.436;2022-08-24T18:30:29;31.90;44.80
49777;DHT22;35673;51.482;7.436;2022-08-24T18:32:55;31.90;45.00
49777;DHT22;35673;51.482;7.436;2022-08-24T18:35:21;31.80;45.10
49777;DHT22;35673;51.482;7.436;2022-08-24T18:37:47;31.70;45.60
49777;DHT22;35673;51.482;7.436;2022-08-24T18:40:15;31.60;45.70
49777;DHT22;35673;51.482;7.436;2022-08-24T18:42:41;31.50;45.80
49777;DHT22;35673;51.482;7.436;2022-08-24T18:45:08;31.50;46.00
49777;DHT22;35673;51.482;7.436;2022-08-24T18:47:34;31.40;46.10
49777;DHT22;35673;51.482;7.436;2022-08-24T18:50:00;31.30;46.20
49777;DHT22;35673;51.482;7.436;2022-08-24T18:52:26;31.20;46.20
49777;DHT22;35673;51.482;7.436;2022-08-24T18:54:52;31.10;46.30
49777;DHT22;35673;51.482;7.436;2022-08-24T18:57:18;31.10;46.50
49777;DHT22;35673;51.482;7.436;2022-08-24T18:59:44;31.00;46.70
49777;DHT22;35673;51.482;7.436;2022-08-24T19:02:15;30.80;46.80
49777;DHT22;35673;51.482;7.436;2022-08-24T19:05:08;30.80;47.00
49777;DHT22;35673;51.482;7.436;2022-08-24T19:07:42;30.70;47.30
49777;DHT22;35673;51.482;7.436;2022-08-24T19:10:13;30.60;47.50
49777;DHT22;35673;51.482;7.436;2022-08-24T19:13:05;30.60;47.80
49777;DHT22;35673;51.482;7.436;2022-08-24T19:15:28;30.50;47.90
49777;DHT22;35673;51.482;7.436;2022-08-24T19:17:54;30.40;48.10
49777;DHT22;35673;51.482;7.436;2022-08-24T19:20:20;30.30;48.30
49777;DHT22;35673;51.482;7.436;2022-08-24T19:22:46;30.20;48.50
49777;DHT22;35673;51.482;7.436;2022-08-24T19:25:23;30.20;48.60
49777;DHT22;35673;51.482;7.436;2022-08-24T19:27:51;30.10;48.60
49777;DHT22;35673;51.482;7.436;2022-08-24T19:30:18;30.00;48.70
49777;DHT22;35673;51.482;7.436;2022-08-24T19:32:44;29.90;48.50
49777;DHT22;35673;51.482;7.436;2022-08-24T19:35:11;29.90;48.70